createdAt,value
2022-10-05T00:01:00.219Z,87.07
2022-10-05T00:03:48.524Z,87.11
2022-10-05T00:10:57.865Z,87.52
2022-10-05T00:14:43.184Z,87.98
2022-10-05T00:17:33.726Z,88.16
2022-10-05T00:20:42.305Z,88.28
2022-10-05T00:23:17.914Z,88.30
2022-10-05T00:30:45.254Z,89.17
2022-10-05T00:42:18.642Z,90.53
2022-10-05T00:45:11.075Z,90.90
2022-10-05T00:48:06.341Z,91.31
2022-10-05T00:51:09.561Z,91.61
2022-10-05T00:54:18.612Z,91.88
2022-10-05T00:57:24.795Z,91.94
2022-10-05T01:04:59.227Z,92.42
2022-10-05T01:08:00.318Z,92.72
2022-10-05T01:15:39.873Z,93.12
2022-10-05T01:18:52.567Z,93.20
2022-10-05T01:21:57.781Z,93.35
2022-10-05T01:25:08.110Z,93.56
2022-10-05T01:28:20.144Z,93.59
2022-10-05T01:31:10.731Z,93.85
2022-10-05T01:33:53.923Z,93.85
2022-10-05T01:36:57.551Z,92.29
2022-10-05T01:40:06.262Z,91.00
2022-10-05T01:43:19.830Z,91.33
2022-10-05T01:46:25.133Z,91.50
2022-10-05T01:49:22.852Z,91.81
2022-10-05T01:53:09.126Z,92.18
2022-10-05T01:56:22.658Z,92.25
2022-10-05T01:59:20.675Z,92.44
2022-10-05T02:02:39.665Z,92.81
2022-10-05T02:06:07.680Z,93.01
2022-10-05T02:09:01.831Z,93.01
2022-10-05T02:12:12.982Z,93.30
2022-10-05T02:19:25.156Z,93.32
2022-10-05T02:22:26.511Z,93.39
2022-10-05T02:25:26.932Z,93.49
2022-10-05T02:28:38.403Z,93.58
2022-10-05T02:35:47.798Z,93.78
2022-10-05T02:38:44.052Z,93.78
2022-10-05T02:45:58.721Z,93.93
2022-10-05T02:48:54.415Z,94.12
2022-10-05T02:51:56.367Z,94.20
2022-10-05T02:59:06.861Z,94.33
2022-10-05T03:02:18.943Z,94.37
2022-10-05T03:05:47.171Z,94.38
2022-10-05T03:09:00.357Z,94.32
2022-10-05T03:12:13.052Z,94.53
2022-10-05T03:14:56.763Z,94.54
2022-10-05T03:18:18.731Z,94.55
2022-10-05T03:29:25.232Z,94.67
2022-10-05T03:32:31.645Z,94.54
2022-10-05T03:35:27.635Z,94.32
2022-10-05T03:38:25.110Z,94.17
2022-10-05T03:41:40.219Z,94.23
2022-10-05T03:52:43.632Z,94.12
2022-10-05T03:55:44.061Z,93.89
2022-10-05T03:58:56.645Z,94.16
2022-10-05T04:01:55.499Z,94.02
2022-10-05T04:08:20.772Z,94.28
2022-10-05T04:15:37.783Z,94.01
2022-10-05T04:19:40.554Z,94.04
2022-10-05T04:22:53.796Z,94.15
2022-10-05T04:26:04.604Z,94.31
2022-10-05T04:30:03.262Z,94.28
2022-10-05T04:33:13.248Z,94.25
2022-10-05T04:53:45.937Z,94.06
2022-10-05T04:56:51.253Z,94.29
2022-10-05T05:04:20.196Z,94.48
2022-10-05T05:11:34.936Z,94.54
2022-10-05T05:14:43.664Z,94.69
2022-10-05T05:22:16.014Z,94.75
2022-10-05T05:25:31.007Z,94.78
2022-10-05T05:28:27.490Z,94.88
2022-10-05T05:31:42.454Z,94.82
2022-10-05T05:35:38.214Z,94.84
2022-10-05T05:43:18.114Z,95.15
2022-10-05T05:47:05.525Z,95.06
2022-10-05T05:50:23.066Z,95.28
2022-10-05T05:53:33.372Z,95.37
2022-10-05T06:00:46.278Z,95.55
2022-10-05T06:26:30.657Z,95.69
2022-10-05T06:29:23.982Z,95.76
2022-10-05T06:36:18.710Z,95.95
2022-10-05T06:43:21.414Z,95.84
2022-10-05T06:46:52.471Z,95.74
2022-10-05T06:50:49.416Z,95.68
2022-10-05T06:58:48.342Z,95.79
2022-10-05T07:06:08.882Z,95.57
2022-10-05T07:09:27.379Z,95.60
2022-10-05T07:16:59.576Z,95.57
2022-10-05T07:20:15.815Z,95.42
2022-10-05T07:23:28.293Z,95.44
2022-10-05T07:30:48.233Z,95.81
2022-10-05T07:33:59.988Z,95.83
2022-10-05T07:37:28.136Z,95.90
2022-10-05T07:40:40.442Z,95.82
2022-10-05T07:44:38.284Z,95.76
2022-10-05T07:47:55.720Z,96.03
2022-10-05T07:55:47.870Z,95.69
2022-10-05T07:58:43.669Z,95.67
2022-10-05T08:01:55.045Z,95.66
2022-10-05T08:05:20.985Z,95.68
2022-10-05T08:12:32.902Z,95.95
2022-10-05T08:15:55.701Z,95.98
2022-10-05T08:19:22.134Z,95.86
2022-10-05T08:22:13.833Z,95.74
2022-10-05T08:25:07.889Z,95.65
2022-10-05T08:32:21.986Z,95.36
2022-10-05T08:35:07.695Z,95.25
2022-10-05T08:37:45.790Z,95.18
2022-10-05T08:41:04.885Z,95.04
2022-10-05T08:44:45.767Z,94.81
2022-10-05T08:48:31.414Z,94.77
2022-10-05T08:55:40.621Z,94.77
2022-10-05T08:59:05.500Z,94.68
2022-10-05T09:02:19.762Z,94.61
2022-10-05T09:05:21.958Z,94.71
2022-10-05T09:08:44.944Z,94.46
2022-10-05T09:12:31.374Z,94.50
2022-10-05T09:16:02.818Z,94.21
2022-10-05T09:22:59.131Z,94.02
2022-10-05T09:26:09.362Z,93.71
2022-10-05T09:33:25.187Z,93.13
2022-10-05T09:36:52.861Z,92.38
2022-10-05T09:40:28.944Z,91.59
2022-10-05T09:43:31.609Z,90.68
2022-10-05T09:46:37.016Z,90.44
2022-10-05T09:49:34.312Z,90.28
2022-10-05T09:52:31.945Z,90.30
2022-10-05T09:55:50.699Z,89.54
2022-10-05T09:59:15.577Z,89.20
2022-10-05T10:01:51.293Z,88.21
2022-10-05T10:05:06.433Z,86.78
2022-10-05T10:08:04.184Z,85.16
2022-10-05T10:11:17.720Z,84.37
2022-10-05T10:14:12.485Z,83.61
2022-10-05T10:17:34.994Z,83.88
2022-10-05T10:20:25.405Z,84.31
2022-10-05T10:23:26.917Z,83.75
2022-10-05T10:26:51.985Z,82.53
2022-10-05T10:29:58.737Z,79.70
2022-10-05T10:32:40.572Z,77.72
2022-10-05T10:35:55.295Z,77.26
2022-10-05T10:39:00.127Z,75.97
2022-10-05T10:41:39.719Z,74.34
2022-10-05T10:44:30.042Z,71.37
2022-10-05T10:47:09.893Z,67.96
2022-10-05T10:49:44.566Z,66.81
2022-10-05T10:52:20.931Z,66.44
2022-10-05T10:54:56.080Z,65.13
2022-10-05T10:57:27.387Z,65.01
2022-10-05T11:00:22.237Z,66.06
2022-10-05T11:03:19.102Z,67.39
2022-10-05T11:06:01.797Z,67.95
2022-10-05T11:09:12.714Z,69.48
2022-10-05T11:12:11.686Z,70.19
2022-10-05T11:14:54.377Z,68.01
2022-10-05T11:17:49.971Z,61.52
2022-10-05T11:20:28.550Z,55.59
2022-10-05T11:22:59.184Z,52.07
2022-10-05T11:25:46.977Z,52.05
2022-10-05T11:28:43.335Z,51.91
2022-10-05T11:31:31.672Z,52.02
2022-10-05T11:34:16.787Z,53.59
2022-10-05T11:37:01.030Z,53.12
2022-10-05T11:39:42.750Z,51.72
2022-10-05T11:42:36.711Z,52.25
2022-10-05T11:45:18.663Z,51.85
2022-10-05T11:47:51.929Z,52.42
2022-10-05T11:50:21.099Z,52.05
2022-10-05T11:52:55.788Z,53.11
2022-10-05T11:55:27.179Z,52.48
2022-10-05T11:57:56.163Z,50.52
2022-10-05T12:00:25.430Z,49.35
2022-10-05T12:03:01.410Z,46.29
2022-10-05T12:05:32.254Z,41.09
2022-10-05T12:08:11.191Z,39.11
2022-10-05T12:10:44.130Z,36.09
2022-10-05T12:13:18.546Z,33.87
2022-10-05T12:15:53.158Z,33.22
2022-10-05T12:18:41.516Z,31.72
2022-10-05T12:21:14.760Z,32.17
2022-10-05T12:23:45.758Z,32.57
2022-10-05T12:26:14.827Z,32.29
2022-10-05T12:28:46.357Z,31.32
2022-10-05T12:31:22.207Z,29.77
2022-10-05T12:33:54.598Z,30.52
2022-10-05T12:36:31.883Z,32.21
2022-10-05T12:39:13.788Z,29.43
2022-10-05T12:41:46.347Z,30.22
2022-10-05T12:44:16.473Z,32.06
2022-10-05T12:46:50.092Z,34.20
2022-10-05T12:49:28.194Z,35.97
2022-10-05T12:51:57.750Z,37.92
2022-10-05T12:54:34.678Z,40.16
2022-10-05T12:57:07.286Z,41.87
2022-10-05T12:59:39.311Z,43.10
2022-10-05T13:02:15.680Z,45.16
2022-10-05T13:04:48.036Z,46.79
2022-10-05T13:07:25.502Z,48.41
2022-10-05T13:10:12.281Z,51.20
2022-10-05T13:12:55.221Z,53.69
2022-10-05T13:15:27.392Z,55.60
2022-10-05T13:18:13.961Z,57.46
2022-10-05T13:21:13.872Z,59.35
2022-10-05T13:23:59.993Z,60.57
2022-10-05T13:27:21.422Z,61.84
2022-10-05T13:30:29.778Z,63.81
2022-10-05T13:33:05.362Z,65.72
2022-10-05T13:35:59.605Z,66.85
2022-10-05T13:39:03.078Z,67.73
2022-10-05T13:42:13.321Z,63.81
2022-10-05T13:45:23.414Z,57.84
2022-10-05T13:48:46.267Z,53.81
2022-10-05T13:51:39.614Z,51.53
2022-10-05T13:54:23.167Z,49.71
2022-10-05T13:57:29.991Z,48.11
2022-10-05T14:00:03.063Z,46.74
2022-10-05T14:02:41.792Z,45.66
2022-10-05T14:05:16.388Z,45.07
2022-10-05T14:07:50.450Z,45.49
2022-10-05T14:10:32.343Z,44.66
2022-10-05T14:13:17.126Z,44.17
2022-10-05T14:15:56.184Z,44.76
2022-10-05T14:18:24.791Z,44.93
2022-10-05T14:20:59.814Z,44.62
2022-10-05T14:23:27.686Z,44.70
2022-10-05T14:25:56.218Z,44.85
2022-10-05T14:28:29.145Z,46.22
2022-10-05T14:31:00.973Z,47.87
2022-10-05T14:33:31.860Z,49.28
2022-10-05T14:36:03.026Z,51.21
2022-10-05T14:38:35.020Z,53.07
2022-10-05T14:41:19.829Z,54.93
2022-10-05T14:43:52.061Z,56.27
2022-10-05T14:46:27.956Z,57.72
2022-10-05T14:49:19.858Z,58.47
2022-10-05T14:51:51.299Z,57.83
2022-10-05T14:54:27.442Z,56.99
2022-10-05T14:57:11.237Z,55.87
2022-10-05T14:59:56.188Z,54.69
2022-10-05T15:02:41.800Z,54.80
2022-10-05T15:05:15.311Z,55.61
2022-10-05T15:07:49.451Z,56.40
2022-10-05T15:10:29.192Z,56.77
2022-10-05T15:13:14.665Z,57.06
2022-10-05T15:15:55.639Z,58.37
2022-10-05T15:18:32.477Z,58.60
2022-10-05T15:21:12.381Z,58.94
2022-10-05T15:23:42.351Z,59.26
2022-10-05T15:26:48.674Z,59.68
2022-10-05T15:29:36.061Z,60.14
2022-10-05T15:32:49.912Z,60.60
2022-10-05T15:35:54.298Z,60.49
2022-10-05T15:39:00.233Z,60.23
2022-10-05T15:41:59.880Z,60.14
2022-10-05T15:44:57.019Z,59.74
2022-10-05T15:47:35.371Z,59.19
2022-10-05T15:50:06.955Z,59.73
2022-10-05T15:52:43.331Z,59.74
2022-10-05T15:55:55.182Z,58.90
2022-10-05T15:58:46.726Z,58.67
2022-10-05T16:02:00.422Z,58.66
2022-10-05T16:04:37.742Z,58.50
2022-10-05T16:08:07.297Z,59.05
2022-10-05T16:11:19.267Z,59.54
2022-10-05T16:14:05.719Z,59.86
2022-10-05T16:16:53.648Z,60.02
2022-10-05T16:20:14.246Z,60.42
2022-10-05T16:22:51.582Z,60.53
2022-10-05T16:25:41.666Z,60.91
2022-10-05T16:28:57.543Z,61.30
2022-10-05T16:31:54.329Z,61.67
2022-10-05T16:35:14.052Z,62.21
2022-10-05T16:38:24.063Z,62.60
2022-10-05T16:41:18.813Z,63.05
2022-10-05T16:44:32.215Z,63.44
2022-10-05T16:47:43.548Z,63.66
2022-10-05T16:50:58.508Z,64.16
2022-10-05T16:54:17.840Z,64.73
2022-10-05T16:57:28.316Z,65.29
2022-10-05T17:00:44.649Z,65.57
2022-10-05T17:03:24.667Z,65.58
2022-10-05T17:07:02.684Z,65.69
2022-10-05T17:10:28.269Z,65.65
2022-10-05T17:13:15.906Z,65.78
2022-10-05T17:16:27.047Z,65.65
2022-10-05T17:19:42.066Z,65.32
2022-10-05T17:22:32.544Z,65.09
2022-10-05T17:25:44.807Z,64.70
2022-10-05T17:28:23.966Z,64.62
2022-10-05T17:32:02.750Z,65.00
2022-10-05T17:35:18.497Z,65.28
2022-10-05T17:38:45.037Z,65.49
2022-10-05T17:42:13.226Z,65.88
2022-10-05T17:45:39.429Z,66.17
2022-10-05T17:49:06.147Z,66.43
2022-10-05T17:52:38.160Z,66.59
2022-10-05T17:55:46.327Z,66.69
2022-10-05T17:58:58.122Z,66.97
2022-10-05T18:02:20.783Z,67.25
2022-10-05T18:05:27.222Z,67.68
2022-10-05T18:08:38.543Z,68.14
2022-10-05T18:12:02.218Z,68.65
2022-10-05T18:15:09.673Z,69.00
2022-10-05T18:18:31.770Z,69.42
2022-10-05T18:21:27.542Z,69.91
2022-10-05T18:24:43.905Z,70.15
2022-10-05T18:28:06.773Z,70.64
2022-10-05T18:31:21.563Z,71.00
2022-10-05T18:34:32.842Z,71.36
2022-10-05T18:37:47.865Z,71.46
2022-10-05T18:40:59.610Z,71.78
2022-10-05T18:44:19.099Z,72.12
2022-10-05T18:47:07.600Z,72.25
2022-10-05T18:50:33.799Z,72.36
2022-10-05T18:53:44.195Z,72.54
2022-10-05T18:56:53.910Z,72.49
2022-10-05T19:00:07.039Z,72.76
2022-10-05T19:03:17.545Z,72.83
2022-10-05T19:06:38.434Z,72.84
2022-10-05T19:09:25.080Z,73.05
2022-10-05T19:12:41.675Z,73.19
2022-10-05T19:15:58.821Z,73.29
2022-10-05T19:19:12.818Z,73.39
2022-10-05T19:22:28.287Z,73.40
2022-10-05T19:25:28.208Z,73.43
2022-10-05T19:28:38.759Z,73.44
2022-10-05T19:31:37.383Z,73.63
2022-10-05T19:34:54.044Z,73.71
2022-10-05T19:37:58.991Z,73.62
2022-10-05T19:41:05.850Z,73.65
2022-10-05T19:44:17.213Z,73.73
2022-10-05T19:47:18.848Z,73.92
2022-10-05T19:50:28.744Z,74.12
2022-10-05T19:53:24.012Z,74.26
2022-10-05T19:56:19.785Z,74.30
2022-10-05T19:59:13.271Z,74.53
2022-10-05T20:02:37.512Z,74.68
2022-10-05T20:05:33.505Z,74.84
2022-10-05T20:08:44.905Z,75.04
2022-10-05T20:11:54.075Z,75.26
2022-10-05T20:15:26.164Z,75.28
2022-10-05T20:19:06.195Z,75.59
2022-10-05T20:22:27.287Z,75.72
2022-10-05T20:25:37.076Z,75.93
2022-10-05T20:28:46.333Z,76.33
2022-10-05T20:31:34.510Z,76.27
2022-10-05T20:34:43.908Z,76.42
2022-10-05T20:37:52.105Z,76.39
2022-10-05T20:41:00.297Z,76.39
2022-10-05T20:44:10.558Z,76.37
2022-10-05T20:47:22.572Z,76.31
2022-10-05T20:50:32.233Z,76.51
2022-10-05T20:53:41.662Z,76.39
2022-10-05T20:56:56.928Z,76.35
2022-10-05T21:00:06.262Z,76.35
2022-10-05T21:03:15.460Z,76.44
2022-10-05T21:06:27.604Z,76.33
2022-10-05T21:09:37.861Z,76.35
2022-10-05T21:13:03.222Z,76.49
2022-10-05T21:15:56.505Z,76.48
2022-10-05T21:18:48.610Z,76.58
2022-10-05T21:21:58.663Z,76.54
2022-10-05T21:25:08.850Z,76.53
2022-10-05T21:32:18.618Z,76.17
2022-10-05T21:35:45.361Z,75.79
2022-10-05T21:38:54.173Z,75.68
2022-10-05T21:42:10.213Z,75.71
2022-10-05T21:45:20.623Z,75.63
2022-10-05T21:48:36.276Z,75.48
2022-10-05T21:52:22.113Z,75.26
2022-10-05T21:55:45.304Z,75.08
2022-10-05T21:59:30.456Z,74.91
2022-10-05T22:02:40.678Z,74.90
2022-10-05T22:05:49.118Z,75.12
2022-10-05T22:09:34.804Z,75.23
2022-10-05T22:12:43.301Z,75.35
2022-10-05T22:15:40.196Z,75.57
2022-10-05T22:18:48.539Z,75.77
2022-10-05T22:26:00.385Z,75.91
2022-10-05T22:29:09.087Z,75.95
2022-10-05T22:32:26.430Z,75.94
2022-10-05T22:35:35.340Z,75.89
2022-10-05T22:38:46.034Z,75.87
2022-10-05T22:41:59.897Z,75.87
2022-10-05T22:45:10.251Z,75.70
2022-10-05T22:48:38.903Z,75.42
2022-10-05T22:52:10.225Z,75.51
2022-10-05T22:55:36.387Z,75.53
2022-10-05T22:58:45.447Z,75.74
2022-10-05T23:05:58.371Z,76.00
2022-10-05T23:13:08.302Z,76.38
2022-10-05T23:16:54.811Z,76.57
2022-10-05T23:24:28.666Z,76.84
2022-10-05T23:31:38.380Z,77.13
2022-10-05T23:35:04.834Z,77.32
2022-10-05T23:38:13.380Z,77.46
2022-10-05T23:54:18.215Z,78.12
